sensor_id;sensor_type;location;lat;lon;timestamp;P1;durP1;ratioP1;P2;durP2;ratioP2
75542;SDS011;64129;53.508;10.476;2024-01-11T00:02:34;22.75;;;10.27;;
75542;SDS011;64129;53.508;10.476;2024-01-11T00:05:13;23.60;;;10.20;;
75542;SDS011;64129;53.508;10.476;2024-01-11T00:07:48;21.52;;;9.98;;
75542;SDS011;64129;53.508;10.476;2024-01-11T00:10:27;23.02;;;10.65;;
75542;SDS011;64129;53.508;10.476;2024-01-11T00:13:09;20.75;;;9.95;;
75542;SDS011;64129;53.508;10.476;2024-01-11T00:15:46;20.73;;;9.63;;
75542;SDS011;64129;53.508;10.476;2024-01-11T00:18:33;22.73;;;10.40;;
75542;SDS011;64129;53.508;10.476;2024-01-11T00:21:14;27.17;;;10.60;;
75542;SDS011;64129;53.508;10.476;2024-01-11T00:26:34;24.90;;;10.50;;
75542;SDS011;64129;53.508;10.476;2024-01-11T00:29:22;25.77;;;10.95;;
75542;SDS011;64129;53.508;10.476;2024-01-11T00:31:58;23.88;;;10.48;;
75542;SDS011;64129;53.508;10.476;2024-01-11T00:34:40;25.67;;;9.70;;
75542;SDS011;64129;53.508;10.476;2024-01-11T00:37:11;24.95;;;10.68;;
75542;SDS011;64129;53.508;10.476;2024-01-11T00:39:49;30.55;;;12.73;;
75542;SDS011;64129;53.508;10.476;2024-01-11T00:42:19;26.85;;;10.38;;
75542;SDS011;64129;53.508;10.476;2024-01-11T00:45:00;27.58;;;10.10;;
75542;SDS011;64129;53.508;10.476;2024-01-11T00:47:27;26.90;;;10.00;;
75542;SDS011;64129;53.508;10.476;2024-01-11T00:49:54;21.98;;;9.60;;
75542;SDS011;64129;53.508;10.476;2024-01-11T00:52:23;25.83;;;9.75;;
75542;SDS011;64129;53.508;10.476;2024-01-11T00:55:04;25.08;;;10.55;;
75542;SDS011;64129;53.508;10.476;2024-01-11T00:57:48;23.75;;;11.27;;
75542;SDS011;64129;53.508;10.476;2024-01-11T01:00:15;26.15;;;11.15;;
75542;SDS011;64129;53.508;10.476;2024-01-11T01:02:55;23.33;;;10.40;;
75542;SDS011;64129;53.508;10.476;2024-01-11T01:05:22;20.88;;;9.50;;
75542;SDS011;64129;53.508;10.476;2024-01-11T01:07:55;24.05;;;10.80;;
75542;SDS011;64129;53.508;10.476;2024-01-11T01:10:22;26.35;;;9.40;;
75542;SDS011;64129;53.508;10.476;2024-01-11T01:12:56;28.15;;;9.20;;
75542;SDS011;64129;53.508;10.476;2024-01-11T01:18:01;22.42;;;9.73;;
75542;SDS011;64129;53.508;10.476;2024-01-11T01:20:34;23.33;;;9.65;;
75542;SDS011;64129;53.508;10.476;2024-01-11T01:23:13;23.63;;;10.02;;
75542;SDS011;64129;53.508;10.476;2024-01-11T01:25:43;22.73;;;9.15;;
75542;SDS011;64129;53.508;10.476;2024-01-11T01:28:13;25.00;;;9.07;;
75542;SDS011;64129;53.508;10.476;2024-01-11T01:30:43;23.55;;;10.32;;
75542;SDS011;64129;53.508;10.476;2024-01-11T01:33:20;25.00;;;10.20;;
75542;SDS011;64129;53.508;10.476;2024-01-11T01:35:50;22.75;;;10.88;;
75542;SDS011;64129;53.508;10.476;2024-01-11T01:38:17;22.48;;;9.20;;
75542;SDS011;64129;53.508;10.476;2024-01-11T01:40:51;26.60;;;9.40;;
75542;SDS011;64129;53.508;10.476;2024-01-11T01:43:23;27.83;;;9.45;;
75542;SDS011;64129;53.508;10.476;2024-01-11T01:46:05;23.27;;;10.07;;
75542;SDS011;64129;53.508;10.476;2024-01-11T01:48:37;25.10;;;9.48;;
75542;SDS011;64129;53.508;10.476;2024-01-11T01:51:08;23.75;;;10.68;;
75542;SDS011;64129;53.508;10.476;2024-01-11T01:53:50;25.42;;;9.68;;
75542;SDS011;64129;53.508;10.476;2024-01-11T01:56:35;21.92;;;10.70;;
75542;SDS011;64129;53.508;10.476;2024-01-11T01:59:07;22.58;;;9.25;;
75542;SDS011;64129;53.508;10.476;2024-01-11T02:01:51;26.02;;;10.02;;
75542;SDS011;64129;53.508;10.476;2024-01-11T02:04:33;23.92;;;9.95;;
75542;SDS011;64129;53.508;10.476;2024-01-11T02:07:07;25.38;;;11.75;;
75542;SDS011;64129;53.508;10.476;2024-01-11T02:09:49;18.90;;;8.98;;
75542;SDS011;64129;53.508;10.476;2024-01-11T02:12:23;23.95;;;9.82;;
75542;SDS011;64129;53.508;10.476;2024-01-11T02:15:06;20.52;;;9.07;;
75542;SDS011;64129;53.508;10.476;2024-01-11T02:17:39;14.30;;;7.25;;
75542;SDS011;64129;53.508;10.476;2024-01-11T02:20:15;22.05;;;9.77;;
75542;SDS011;64129;53.508;10.476;2024-01-11T02:22:52;22.05;;;9.88;;
75542;SDS011;64129;53.508;10.476;2024-01-11T02:25:23;23.58;;;9.70;;
75542;SDS011;64129;53.508;10.476;2024-01-11T02:28:05;23.40;;;10.40;;
75542;SDS011;64129;53.508;10.476;2024-01-11T02:30:34;28.48;;;10.93;;
75542;SDS011;64129;53.508;10.476;2024-01-11T02:33:12;26.80;;;11.63;;
75542;SDS011;64129;53.508;10.476;2024-01-11T02:35:42;24.00;;;10.32;;
75542;SDS011;64129;53.508;10.476;2024-01-11T02:38:11;33.08;;;10.60;;
75542;SDS011;64129;53.508;10.476;2024-01-11T02:40:38;27.92;;;11.43;;
75542;SDS011;64129;53.508;10.476;2024-01-11T02:43:29;25.70;;;10.35;;
75542;SDS011;64129;53.508;10.476;2024-01-11T02:46:07;24.45;;;10.55;;
75542;SDS011;64129;53.508;10.476;2024-01-11T02:48:37;26.33;;;11.25;;
75542;SDS011;64129;53.508;10.476;2024-01-11T02:51:17;20.42;;;9.23;;
75542;SDS011;64129;53.508;10.476;2024-01-11T02:53:44;28.48;;;11.00;;
75542;SDS011;64129;53.508;10.476;2024-01-11T02:56:14;26.33;;;11.13;;
75542;SDS011;64129;53.508;10.476;2024-01-11T02:58:47;23.92;;;10.38;;
75542;SDS011;64129;53.508;10.476;2024-01-11T03:01:14;24.70;;;10.23;;
75542;SDS011;64129;53.508;10.476;2024-01-11T03:03:53;25.67;;;11.68;;
75542;SDS011;64129;53.508;10.476;2024-01-11T03:06:21;23.85;;;11.73;;
75542;SDS011;64129;53.508;10.476;2024-01-11T03:08:55;26.15;;;10.93;;
75542;SDS011;64129;53.508;10.476;2024-01-11T03:11:22;21.70;;;10.10;;
75542;SDS011;64129;53.508;10.476;2024-01-11T03:13:49;26.40;;;11.10;;
75542;SDS011;64129;53.508;10.476;2024-01-11T03:16:16;27.17;;;10.77;;
75542;SDS011;64129;53.508;10.476;2024-01-11T03:18:54;28.23;;;10.95;;
75542;SDS011;64129;53.508;10.476;2024-01-11T03:21:57;22.95;;;10.63;;
75542;SDS011;64129;53.508;10.476;2024-01-11T03:24:27;23.00;;;11.55;;
75542;SDS011;64129;53.508;10.476;2024-01-11T03:27:30;28.20;;;11.27;;
75542;SDS011;64129;53.508;10.476;2024-01-11T03:29:57;23.88;;;11.07;;
75542;SDS011;64129;53.508;10.476;2024-01-11T03:32:26;26.45;;;11.25;;
75542;SDS011;64129;53.508;10.476;2024-01-11T03:34:57;27.55;;;10.68;;
75542;SDS011;64129;53.508;10.476;2024-01-11T03:37:24;25.60;;;11.07;;
75542;SDS011;64129;53.508;10.476;2024-01-11T03:39:54;25.05;;;11.65;;
75542;SDS011;64129;53.508;10.476;2024-01-11T03:42:35;25.98;;;10.70;;
75542;SDS011;64129;53.508;10.476;2024-01-11T03:45:09;30.63;;;12.25;;
75542;SDS011;64129;53.508;10.476;2024-01-11T03:47:45;25.90;;;12.15;;
75542;SDS011;64129;53.508;10.476;2024-01-11T03:50:32;23.73;;;11.63;;
75542;SDS011;64129;53.508;10.476;2024-01-11T03:53:06;25.38;;;9.90;;
75542;SDS011;64129;53.508;10.476;2024-01-11T03:55:57;22.60;;;9.95;;
75542;SDS011;64129;53.508;10.476;2024-01-11T03:58:32;26.30;;;10.98;;
75542;SDS011;64129;53.508;10.476;2024-01-11T04:01:07;33.50;;;12.13;;
75542;SDS011;64129;53.508;10.476;2024-01-11T04:03:51;25.55;;;11.10;;
75542;SDS011;64129;53.508;10.476;2024-01-11T04:06:19;27.02;;;12.73;;
75542;SDS011;64129;53.508;10.476;2024-01-11T04:09:13;30.17;;;12.23;;
75542;SDS011;64129;53.508;10.476;2024-01-11T04:11:43;29.73;;;12.68;;
75542;SDS011;64129;53.508;10.476;2024-01-11T04:14:31;25.38;;;10.55;;
75542;SDS011;64129;53.508;10.476;2024-01-11T04:17:00;25.38;;;10.45;;
75542;SDS011;64129;53.508;10.476;2024-01-11T04:19:27;28.88;;;11.27;;
75542;SDS011;64129;53.508;10.476;2024-01-11T04:22:08;27.63;;;11.27;;
75542;SDS011;64129;53.508;10.476;2024-01-11T04:24:49;27.27;;;11.25;;
75542;SDS011;64129;53.508;10.476;2024-01-11T04:27:21;25.05;;;11.07;;
75542;SDS011;64129;53.508;10.476;2024-01-11T04:29:54;27.52;;;11.85;;
75542;SDS011;64129;53.508;10.476;2024-01-11T04:32:31;22.33;;;11.00;;
75542;SDS011;64129;53.508;10.476;2024-01-11T04:35:02;24.27;;;10.52;;
75542;SDS011;64129;53.508;10.476;2024-01-11T04:37:57;24.52;;;11.20;;
75542;SDS011;64129;53.508;10.476;2024-01-11T04:40:24;26.90;;;11.20;;
75542;SDS011;64129;53.508;10.476;2024-01-11T04:42:52;26.55;;;12.52;;
75542;SDS011;64129;53.508;10.476;2024-01-11T04:45:22;28.73;;;11.32;;
75542;SDS011;64129;53.508;10.476;2024-01-11T04:50:54;23.27;;;10.80;;
75542;SDS011;64129;53.508;10.476;2024-01-11T04:53:21;25.92;;;10.98;;
75542;SDS011;64129;53.508;10.476;2024-01-11T04:58:42;27.40;;;10.98;;
75542;SDS011;64129;53.508;10.476;2024-01-11T05:01:29;29.40;;;12.38;;
75542;SDS011;64129;53.508;10.476;2024-01-11T05:06:52;29.00;;;11.68;;
75542;SDS011;64129;53.508;10.476;2024-01-11T05:09:34;27.25;;;11.07;;
75542;SDS011;64129;53.508;10.476;2024-01-11T05:12:02;26.05;;;11.45;;
75542;SDS011;64129;53.508;10.476;2024-01-11T05:14:42;25.98;;;11.52;;
75542;SDS011;64129;53.508;10.476;2024-01-11T05:17:13;28.48;;;12.45;;
75542;SDS011;64129;53.508;10.476;2024-01-11T05:19:44;16.55;;;8.90;;
75542;SDS011;64129;53.508;10.476;2024-01-11T05:22:11;23.17;;;10.70;;
75542;SDS011;64129;53.508;10.476;2024-01-11T05:24:38;23.20;;;11.15;;
75542;SDS011;64129;53.508;10.476;2024-01-11T05:27:07;22.92;;;9.27;;
75542;SDS011;64129;53.508;10.476;2024-01-11T05:29:51;30.02;;;11.45;;
75542;SDS011;64129;53.508;10.476;2024-01-11T05:32:18;27.95;;;11.15;;
75542;SDS011;64129;53.508;10.476;2024-01-11T05:34:45;26.55;;;10.68;;
75542;SDS011;64129;53.508;10.476;2024-01-11T05:37:24;20.98;;;9.70;;
75542;SDS011;64129;53.508;10.476;2024-01-11T05:39:55;22.77;;;9.57;;
75542;SDS011;64129;53.508;10.476;2024-01-11T05:42:39;24.15;;;11.50;;
75542;SDS011;64129;53.508;10.476;2024-01-11T05:45:08;25.88;;;9.68;;
75542;SDS011;64129;53.508;10.476;2024-01-11T05:47:35;23.45;;;10.07;;
75542;SDS011;64129;53.508;10.476;2024-01-11T05:50:05;20.75;;;8.57;;
75542;SDS011;64129;53.508;10.476;2024-01-11T05:52:47;17.95;;;8.10;;
75542;SDS011;64129;53.508;10.476;2024-01-11T05:55:18;23.35;;;11.07;;
75542;SDS011;64129;53.508;10.476;2024-01-11T05:57:48;24.70;;;10.05;;
75542;SDS011;64129;53.508;10.476;2024-01-11T06:00:15;21.27;;;9.65;;
75542;SDS011;64129;53.508;10.476;2024-01-11T06:02:49;17.08;;;7.82;;
75542;SDS011;64129;53.508;10.476;2024-01-11T06:05:18;24.20;;;10.43;;
75542;SDS011;64129;53.508;10.476;2024-01-11T06:07:48;25.88;;;11.75;;
75542;SDS011;64129;53.508;10.476;2024-01-11T06:10:15;24.52;;;11.73;;
75542;SDS011;64129;53.508;10.476;2024-01-11T06:12:52;28.50;;;11.85;;
75542;SDS011;64129;53.508;10.476;2024-01-11T06:15:23;20.48;;;9.48;;
75542;SDS011;64129;53.508;10.476;2024-01-11T06:18:14;22.55;;;10.18;;
75542;SDS011;64129;53.508;10.476;2024-01-11T06:20:54;23.92;;;10.50;;
75542;SDS011;64129;53.508;10.476;2024-01-11T06:23:41;23.52;;;9.77;;
75542;SDS011;64129;53.508;10.476;2024-01-11T06:26:10;23.20;;;9.75;;
75542;SDS011;64129;53.508;10.476;2024-01-11T06:28:37;24.67;;;11.77;;
75542;SDS011;64129;53.508;10.476;2024-01-11T06:31:15;23.55;;;10.82;;
75542;SDS011;64129;53.508;10.476;2024-01-11T06:33:42;25.30;;;11.25;;
75542;SDS011;64129;53.508;10.476;2024-01-11T06:36:23;25.58;;;11.35;;
75542;SDS011;64129;53.508;10.476;2024-01-11T06:38:56;19.38;;;8.95;;
75542;SDS011;64129;53.508;10.476;2024-01-11T06:41:38;24.13;;;10.30;;
75542;SDS011;64129;53.508;10.476;2024-01-11T06:44:09;27.25;;;12.30;;
75542;SDS011;64129;53.508;10.476;2024-01-11T06:46:40;14.02;;;6.63;;
75542;SDS011;64129;53.508;10.476;2024-01-11T06:49:16;26.45;;;10.77;;
75542;SDS011;64129;53.508;10.476;2024-01-11T06:51:47;23.25;;;10.98;;
75542;SDS011;64129;53.508;10.476;2024-01-11T06:54:17;25.52;;;11.35;;
75542;SDS011;64129;53.508;10.476;2024-01-11T06:56:49;28.52;;;11.75;;
75542;SDS011;64129;53.508;10.476;2024-01-11T06:59:22;32.80;;;12.93;;
75542;SDS011;64129;53.508;10.476;2024-01-11T07:02:00;23.92;;;10.93;;
75542;SDS011;64129;53.508;10.476;2024-01-11T07:04:33;21.50;;;10.48;;
75542;SDS011;64129;53.508;10.476;2024-01-11T07:07:03;26.77;;;10.90;;
75542;SDS011;64129;53.508;10.476;2024-01-11T07:09:33;23.83;;;11.82;;
75542;SDS011;64129;53.508;10.476;2024-01-11T07:12:07;22.98;;;9.98;;
75542;SDS011;64129;53.508;10.476;2024-01-11T07:14:34;23.50;;;10.55;;
75542;SDS011;64129;53.508;10.476;2024-01-11T07:17:17;26.98;;;11.88;;
75542;SDS011;64129;53.508;10.476;2024-01-11T07:19:50;22.90;;;9.60;;
75542;SDS011;64129;53.508;10.476;2024-01-11T07:22:20;22.55;;;10.68;;
75542;SDS011;64129;53.508;10.476;2024-01-11T07:27:34;21.30;;;9.60;;
75542;SDS011;64129;53.508;10.476;2024-01-11T07:30:05;21.85;;;9.20;;
75542;SDS011;64129;53.508;10.476;2024-01-11T07:32:36;16.17;;;7.38;;
75542;SDS011;64129;53.508;10.476;2024-01-11T07:35:08;20.98;;;9.35;;
75542;SDS011;64129;53.508;10.476;2024-01-11T07:37:43;24.27;;;9.52;;
75542;SDS011;64129;53.508;10.476;2024-01-11T07:40:13;21.10;;;8.07;;
75542;SDS011;64129;53.508;10.476;2024-01-11T07:42:48;25.45;;;8.70;;
75542;SDS011;64129;53.508;10.476;2024-01-11T07:48:22;18.35;;;7.97;;
75542;SDS011;64129;53.508;10.476;2024-01-11T07:50:58;21.98;;;8.88;;
75542;SDS011;64129;53.508;10.476;2024-01-11T07:53:46;21.90;;;8.35;;
75542;SDS011;64129;53.508;10.476;2024-01-11T07:56:30;18.48;;;9.00;;
75542;SDS011;64129;53.508;10.476;2024-01-11T07:59:04;22.13;;;8.73;;
75542;SDS011;64129;53.508;10.476;2024-01-11T08:01:36;19.25;;;9.15;;
75542;SDS011;64129;53.508;10.476;2024-01-11T08:04:26;20.85;;;9.18;;
75542;SDS011;64129;53.508;10.476;2024-01-11T08:06:53;21.88;;;8.93;;
75542;SDS011;64129;53.508;10.476;2024-01-11T08:09:26;22.80;;;8.95;;
75542;SDS011;64129;53.508;10.476;2024-01-11T08:11:54;24.38;;;9.80;;
75542;SDS011;64129;53.508;10.476;2024-01-11T08:14:23;18.75;;;7.38;;
75542;SDS011;64129;53.508;10.476;2024-01-11T08:17:08;15.88;;;7.50;;
75542;SDS011;64129;53.508;10.476;2024-01-11T08:19:35;22.92;;;8.95;;
75542;SDS011;64129;53.508;10.476;2024-01-11T08:22:05;20.85;;;9.35;;
75542;SDS011;64129;53.508;10.476;2024-01-11T08:24:37;20.88;;;9.23;;
75542;SDS011;64129;53.508;10.476;2024-01-11T08:27:04;25.05;;;8.75;;
75542;SDS011;64129;53.508;10.476;2024-01-11T08:29:46;18.58;;;7.90;;
75542;SDS011;64129;53.508;10.476;2024-01-11T08:32:13;23.38;;;8.80;;
75542;SDS011;64129;53.508;10.476;2024-01-11T08:34:41;22.50;;;9.60;;
75542;SDS011;64129;53.508;10.476;2024-01-11T08:37:09;24.10;;;8.50;;
75542;SDS011;64129;53.508;10.476;2024-01-11T08:39:36;20.92;;;8.63;;
75542;SDS011;64129;53.508;10.476;2024-01-11T08:42:26;21.30;;;9.50;;
75542;SDS011;64129;53.508;10.476;2024-01-11T08:44:54;21.23;;;8.38;;
75542;SDS011;64129;53.508;10.476;2024-01-11T08:47:24;22.10;;;8.85;;
75542;SDS011;64129;53.508;10.476;2024-01-11T08:49:54;20.70;;;8.15;;
75542;SDS011;64129;53.508;10.476;2024-01-11T08:52:27;22.08;;;8.00;;
75542;SDS011;64129;53.508;10.476;2024-01-11T08:54:57;16.20;;;7.30;;
75542;SDS011;64129;53.508;10.476;2024-01-11T08:57:30;23.00;;;8.38;;
75542;SDS011;64129;53.508;10.476;2024-01-11T08:59:57;16.52;;;7.38;;
75542;SDS011;64129;53.508;10.476;2024-01-11T09:05:18;18.55;;;7.88;;
75542;SDS011;64129;53.508;10.476;2024-01-11T09:08:00;19.20;;;7.45;;
75542;SDS011;64129;53.508;10.476;2024-01-11T09:10:33;18.92;;;7.05;;
75542;SDS011;64129;53.508;10.476;2024-01-11T09:13:18;12.18;;;5.75;;
75542;SDS011;64129;53.508;10.476;2024-01-11T09:15:45;18.92;;;7.15;;
75542;SDS011;64129;53.508;10.476;2024-01-11T09:18:26;15.95;;;7.03;;
75542;SDS011;64129;53.508;10.476;2024-01-11T09:20:53;15.15;;;7.75;;
75542;SDS011;64129;53.508;10.476;2024-01-11T09:23:27;15.43;;;7.30;;
75542;SDS011;64129;53.508;10.476;2024-01-11T09:25:57;14.55;;;6.28;;
75542;SDS011;64129;53.508;10.476;2024-01-11T09:28:30;18.15;;;8.50;;
75542;SDS011;64129;53.508;10.476;2024-01-11T09:30:57;16.40;;;7.57;;
75542;SDS011;64129;53.508;10.476;2024-01-11T09:33:30;18.00;;;7.35;;
75542;SDS011;64129;53.508;10.476;2024-01-11T09:38:36;13.68;;;5.85;;
75542;SDS011;64129;53.508;10.476;2024-01-11T09:41:14;16.83;;;6.35;;
75542;SDS011;64129;53.508;10.476;2024-01-11T09:43:51;14.80;;;5.63;;
75542;SDS011;64129;53.508;10.476;2024-01-11T09:46:21;11.88;;;5.18;;
75542;SDS011;64129;53.508;10.476;2024-01-11T09:48:49;15.98;;;6.82;;
75542;SDS011;64129;53.508;10.476;2024-01-11T09:53:45;18.52;;;6.82;;
75542;SDS011;64129;53.508;10.476;2024-01-11T09:58:46;16.48;;;6.05;;
75542;SDS011;64129;53.508;10.476;2024-01-11T10:01:17;15.98;;;7.00;;
75542;SDS011;64129;53.508;10.476;2024-01-11T10:03:44;17.90;;;6.68;;
75542;SDS011;64129;53.508;10.476;2024-01-11T10:08:43;17.00;;;6.13;;
75542;SDS011;64129;53.508;10.476;2024-01-11T10:11:10;18.88;;;6.63;;
75542;SDS011;64129;53.508;10.476;2024-01-11T10:13:37;20.90;;;7.35;;
75542;SDS011;64129;53.508;10.476;2024-01-11T10:16:10;19.92;;;7.95;;
75542;SDS011;64129;53.508;10.476;2024-01-11T10:18:41;17.80;;;7.30;;
75542;SDS011;64129;53.508;10.476;2024-01-11T10:21:08;17.42;;;6.72;;
75542;SDS011;64129;53.508;10.476;2024-01-11T10:23:36;18.25;;;6.93;;
75542;SDS011;64129;53.508;10.476;2024-01-11T10:26:04;26.20;;;6.80;;
75542;SDS011;64129;53.508;10.476;2024-01-11T10:28:36;19.13;;;6.88;;
75542;SDS011;64129;53.508;10.476;2024-01-11T10:31:06;18.60;;;6.65;;
75542;SDS011;64129;53.508;10.476;2024-01-11T10:33:36;19.98;;;7.25;;
75542;SDS011;64129;53.508;10.476;2024-01-11T10:36:04;25.85;;;7.20;;
75542;SDS011;64129;53.508;10.476;2024-01-11T10:38:35;22.45;;;8.38;;
75542;SDS011;64129;53.508;10.476;2024-01-11T10:41:05;22.23;;;7.72;;
75542;SDS011;64129;53.508;10.476;2024-01-11T10:43:37;17.10;;;6.97;;
75542;SDS011;64129;53.508;10.476;2024-01-11T10:46:05;19.98;;;8.18;;
75542;SDS011;64129;53.508;10.476;2024-01-11T10:48:37;22.75;;;7.78;;
75542;SDS011;64129;53.508;10.476;2024-01-11T10:51:08;19.58;;;7.80;;
75542;SDS011;64129;53.508;10.476;2024-01-11T10:53:45;21.30;;;8.38;;
75542;SDS011;64129;53.508;10.476;2024-01-11T10:56:14;21.58;;;8.00;;
75542;SDS011;64129;53.508;10.476;2024-01-11T10:58:44;22.67;;;7.40;;
75542;SDS011;64129;53.508;10.476;2024-01-11T11:01:13;16.48;;;6.90;;
75542;SDS011;64129;53.508;10.476;2024-01-11T11:03:40;19.85;;;7.20;;
75542;SDS011;64129;53.508;10.476;2024-01-11T11:06:15;21.83;;;7.68;;
75542;SDS011;64129;53.508;10.476;2024-01-11T11:08:45;20.30;;;8.65;;
75542;SDS011;64129;53.508;10.476;2024-01-11T11:11:14;18.23;;;6.60;;
75542;SDS011;64129;53.508;10.476;2024-01-11T11:13:42;25.30;;;8.65;;
75542;SDS011;64129;53.508;10.476;2024-01-11T11:16:09;20.15;;;8.10;;
75542;SDS011;64129;53.508;10.476;2024-01-11T11:18:39;18.27;;;7.85;;
75542;SDS011;64129;53.508;10.476;2024-01-11T11:21:10;23.60;;;8.40;;
75542;SDS011;64129;53.508;10.476;2024-01-11T11:23:39;21.77;;;8.30;;
75542;SDS011;64129;53.508;10.476;2024-01-11T11:26:06;22.55;;;8.65;;
75542;SDS011;64129;53.508;10.476;2024-01-11T11:28:36;23.65;;;8.25;;
75542;SDS011;64129;53.508;10.476;2024-01-11T11:31:03;26.10;;;7.97;;
75542;SDS011;64129;53.508;10.476;2024-01-11T11:33:30;23.60;;;7.95;;
75542;SDS011;64129;53.508;10.476;2024-01-11T11:36:00;20.42;;;7.75;;
75542;SDS011;64129;53.508;10.476;2024-01-11T11:38:32;23.30;;;7.97;;
75542;SDS011;64129;53.508;10.476;2024-01-11T11:41:00;19.10;;;6.68;;
75542;SDS011;64129;53.508;10.476;2024-01-11T11:43:28;15.60;;;7.47;;
75542;SDS011;64129;53.508;10.476;2024-01-11T11:45:59;22.70;;;8.00;;
75542;SDS011;64129;53.508;10.476;2024-01-11T11:51:15;22.08;;;6.93;;
75542;SDS011;64129;53.508;10.476;2024-01-11T11:56:10;19.73;;;7.38;;
75542;SDS011;64129;53.508;10.476;2024-01-11T11:58:37;17.25;;;6.75;;
75542;SDS011;64129;53.508;10.476;2024-01-11T12:01:05;14.55;;;5.63;;
75542;SDS011;64129;53.508;10.476;2024-01-11T12:06:09;16.45;;;7.25;;
75542;SDS011;64129;53.508;10.476;2024-01-11T12:08:37;21.08;;;8.43;;
75542;SDS011;64129;53.508;10.476;2024-01-11T12:11:08;24.23;;;9.10;;
75542;SDS011;64129;53.508;10.476;2024-01-11T12:13:35;22.40;;;7.80;;
75542;SDS011;64129;53.508;10.476;2024-01-11T12:16:02;21.10;;;7.38;;
75542;SDS011;64129;53.508;10.476;2024-01-11T12:18:29;14.80;;;6.65;;
75542;SDS011;64129;53.508;10.476;2024-01-11T12:20:56;21.70;;;7.32;;
75542;SDS011;64129;53.508;10.476;2024-01-11T12:23:23;16.15;;;6.32;;
75542;SDS011;64129;53.508;10.476;2024-01-11T12:25:57;19.73;;;7.47;;
75542;SDS011;64129;53.508;10.476;2024-01-11T12:28:34;21.25;;;7.45;;
75542;SDS011;64129;53.508;10.476;2024-01-11T12:33:30;17.38;;;6.95;;
75542;SDS011;64129;53.508;10.476;2024-01-11T12:35:57;16.73;;;6.63;;
75542;SDS011;64129;53.508;10.476;2024-01-11T12:38:27;17.13;;;6.35;;
75542;SDS011;64129;53.508;10.476;2024-01-11T12:40:54;16.33;;;6.22;;
75542;SDS011;64129;53.508;10.476;2024-01-11T12:43:23;18.65;;;6.05;;
75542;SDS011;64129;53.508;10.476;2024-01-11T12:45:50;13.82;;;5.53;;
75542;SDS011;64129;53.508;10.476;2024-01-11T12:48:19;16.13;;;6.07;;
75542;SDS011;64129;53.508;10.476;2024-01-11T12:50:46;17.88;;;6.68;;
75542;SDS011;64129;53.508;10.476;2024-01-11T12:53:14;14.25;;;6.25;;
75542;SDS011;64129;53.508;10.476;2024-01-11T12:55:47;17.27;;;6.03;;
75542;SDS011;64129;53.508;10.476;2024-01-11T12:58:19;15.68;;;5.85;;
75542;SDS011;64129;53.508;10.476;2024-01-11T13:00:52;13.40;;;6.15;;
75542;SDS011;64129;53.508;10.476;2024-01-11T13:03:19;11.95;;;6.03;;
75542;SDS011;64129;53.508;10.476;2024-01-11T13:05:48;20.42;;;7.75;;
75542;SDS011;64129;53.508;10.476;2024-01-11T13:08:16;18.85;;;6.63;;
75542;SDS011;64129;53.508;10.476;2024-01-11T13:10:43;16.02;;;6.70;;
75542;SDS011;64129;53.508;10.476;2024-01-11T13:13:13;15.80;;;6.53;;
75542;SDS011;64129;53.508;10.476;2024-01-11T13:15:40;15.40;;;6.53;;
75542;SDS011;64129;53.508;10.476;2024-01-11T13:18:07;14.40;;;6.28;;
75542;SDS011;64129;53.508;10.476;2024-01-11T13:20:34;14.55;;;6.45;;
75542;SDS011;64129;53.508;10.476;2024-01-11T13:23:11;19.27;;;7.20;;
75542;SDS011;64129;53.508;10.476;2024-01-11T13:25:39;15.48;;;6.80;;
75542;SDS011;64129;53.508;10.476;2024-01-11T13:28:09;16.55;;;6.63;;
75542;SDS011;64129;53.508;10.476;2024-01-11T13:30:40;13.63;;;5.93;;
75542;SDS011;64129;53.508;10.476;2024-01-11T13:33:08;11.35;;;6.30;;
75542;SDS011;64129;53.508;10.476;2024-01-11T13:35:35;17.45;;;7.30;;
75542;SDS011;64129;53.508;10.476;2024-01-11T13:38:05;18.63;;;7.10;;
75542;SDS011;64129;53.508;10.476;2024-01-11T13:40:32;18.40;;;7.50;;
75542;SDS011;64129;53.508;10.476;2024-01-11T13:43:05;14.02;;;7.13;;
75542;SDS011;64129;53.508;10.476;2024-01-11T13:45:32;13.60;;;5.82;;
75542;SDS011;64129;53.508;10.476;2024-01-11T13:47:59;14.35;;;6.72;;
75542;SDS011;64129;53.508;10.476;2024-01-11T13:50:27;11.90;;;6.38;;
75542;SDS011;64129;53.508;10.476;2024-01-11T13:52:54;13.05;;;6.00;;
75542;SDS011;64129;53.508;10.476;2024-01-11T13:55:23;15.15;;;5.80;;
75542;SDS011;64129;53.508;10.476;2024-01-11T13:57:53;15.15;;;6.22;;
75542;SDS011;64129;53.508;10.476;2024-01-11T14:00:20;15.50;;;6.45;;
75542;SDS011;64129;53.508;10.476;2024-01-11T14:02:49;15.27;;;6.70;;
75542;SDS011;64129;53.508;10.476;2024-01-11T14:05:16;12.18;;;5.22;;
75542;SDS011;64129;53.508;10.476;2024-01-11T14:07:44;11.50;;;5.47;;
75542;SDS011;64129;53.508;10.476;2024-01-11T14:10:13;14.73;;;6.93;;
75542;SDS011;64129;53.508;10.476;2024-01-11T14:12:41;12.30;;;5.95;;
75542;SDS011;64129;53.508;10.476;2024-01-11T14:15:10;16.88;;;5.90;;
75542;SDS011;64129;53.508;10.476;2024-01-11T14:17:39;13.02;;;5.93;;
75542;SDS011;64129;53.508;10.476;2024-01-11T14:20:07;15.77;;;6.53;;
75542;SDS011;64129;53.508;10.476;2024-01-11T14:22:49;12.60;;;3.45;;
75542;SDS011;64129;53.508;10.476;2024-01-11T14:25:20;11.82;;;5.28;;
75542;SDS011;64129;53.508;10.476;2024-01-11T14:30:19;10.82;;;5.13;;
75542;SDS011;64129;53.508;10.476;2024-01-11T14:32:50;10.65;;;5.28;;
75542;SDS011;64129;53.508;10.476;2024-01-11T14:35:16;13.20;;;4.38;;
75542;SDS011;64129;53.508;10.476;2024-01-11T14:37:44;10.20;;;5.07;;
75542;SDS011;64129;53.508;10.476;2024-01-11T14:40:11;13.25;;;5.43;;
75542;SDS011;64129;53.508;10.476;2024-01-11T14:42:38;8.43;;;4.25;;
75542;SDS011;64129;53.508;10.476;2024-01-11T14:45:06;14.93;;;5.80;;
75542;SDS011;64129;53.508;10.476;2024-01-11T14:47:34;8.10;;;4.15;;
75542;SDS011;64129;53.508;10.476;2024-01-11T14:50:09;12.43;;;4.78;;
75542;SDS011;64129;53.508;10.476;2024-01-11T14:52:36;10.30;;;5.07;;
75542;SDS011;64129;53.508;10.476;2024-01-11T14:55:05;12.85;;;5.00;;
75542;SDS011;64129;53.508;10.476;2024-01-11T14:57:33;12.77;;;4.65;;
75542;SDS011;64129;53.508;10.476;2024-01-11T15:00:00;10.70;;;4.82;;
75542;SDS011;64129;53.508;10.476;2024-01-11T15:02:27;14.18;;;5.35;;
75542;SDS011;64129;53.508;10.476;2024-01-11T15:04:56;13.88;;;4.63;;
75542;SDS011;64129;53.508;10.476;2024-01-11T15:07:22;13.05;;;5.47;;
75542;SDS011;64129;53.508;10.476;2024-01-11T15:09:49;17.45;;;5.43;;
75542;SDS011;64129;53.508;10.476;2024-01-11T15:12:16;13.73;;;5.55;;
75542;SDS011;64129;53.508;10.476;2024-01-11T15:14:43;10.75;;;5.50;;
75542;SDS011;64129;53.508;10.476;2024-01-11T15:17:10;14.63;;;4.97;;
75542;SDS011;64129;53.508;10.476;2024-01-11T15:19:37;6.40;;;3.47;;
75542;SDS011;64129;53.508;10.476;2024-01-11T15:22:03;9.15;;;5.07;;
75542;SDS011;64129;53.508;10.476;2024-01-11T15:24:30;14.18;;;5.40;;
75542;SDS011;64129;53.508;10.476;2024-01-11T15:26:58;14.48;;;5.70;;
75542;SDS011;64129;53.508;10.476;2024-01-11T15:29:32;14.73;;;5.72;;
75542;SDS011;64129;53.508;10.476;2024-01-11T15:31:59;12.93;;;5.38;;
75542;SDS011;64129;53.508;10.476;2024-01-11T15:34:26;12.45;;;5.43;;